ENVE weather

Valle Airfield Åraksøyne
Aust-Agder, Norway

Public forecast

Using degrees Celsius for public forecast. Weather courtesy of forecast.io.

METAR (pilot weather report)

Closest report is Kristiansand Airport, 52.4 nm (97.0 km) SSE. Retrieved 2019/05/27 00:20 UTC (12 minutes ago):

ENCN 270020Z AUTO 21005KT 9999 FEW084/// OVC100/// 09/06 Q0997

TAF (pilot weather forecast)

Forecast is more than 12 hours old.

Closest forecast is Kristiansand Airport, 52.4 nm (97.0 km) SSE. Retrieved 2016/05/06 12:39 UTC (3 years ago):

TAF TAF ENCN 061100Z 0612/0712 14008KT 9999 FEW040